Metar z połowy godziny Komunikat METAR ze strony awiacja.imgw.pl Metar G30 EPOK METAR EPOK 241130Z 30010KT 9999 BKN149 07/01 Q1022 RMK 074 062 7/7=